Time;durP1;ratioP1;P1;durP2;ratioP2;P2;SDS_P1;SDS_P2;PMS_P1;PMS_P2;Temp;Humidity;BMP_temperature;BMP_pressure;BME280_temperature;BME280_humidity;BME280_pressure;Samples;Min_cycle;Max_cycle;Signal;HPM_P1;HPM_P2
2021/04/29 00:00:52;;;;;;;11.30;7.30;;;;;;;5.14;53.24;99853.92;106049;1104;78222;-64
2021/04/29 00:02:58;;;;;;;9.50;6.70;;;;;;;5.18;53.40;99857.95;106023;1105;77566;-63
2021/04/29 00:05:03;;;;;;;10.60;7.00;;;;;;;5.21;53.24;99856.78;106039;1104;78415;-63
2021/04/29 00:07:11;;;;;;;9.50;7.00;;;;;;;5.24;53.17;99859.97;106028;1104;76939;-61
2021/04/29 00:09:16;;;;;;;10.70;6.70;;;;;;;5.45;53.13;99853.23;106052;1104;79484;-61
2021/04/29 00:11:21;;;;;;;10.40;7.10;;;;;;;5.62;52.68;99852.20;105990;1104;78793;-61
2021/04/29 00:13:29;;;;;;;14.00;8.60;;;;;;;5.70;52.65;99857.53;106030;1104;78893;-61
2021/04/29 00:15:34;;;;;;;15.00;9.30;;;;;;;5.81;52.23;99841.93;106018;1104;79261;-61
2021/04/29 00:17:42;;;;;;;9.40;7.00;;;;;;;5.89;52.20;99844.61;106049;1105;78405;-61
2021/04/29 00:19:47;;;;;;;11.80;7.40;;;;;;;5.91;51.88;99839.06;106033;1104;77798;-61
2021/04/29 00:21:52;;;;;;;12.30;7.70;;;;;;;5.93;51.92;99839.75;106016;1105;78537;-61
2021/04/29 00:23:57;;;;;;;11.20;7.90;;;;;;;5.96;51.84;99839.38;106054;1105;77312;-61
2021/04/29 00:26:05;;;;;;;13.50;7.80;;;;;;;5.96;51.89;99836.69;106066;1105;78600;-61
2021/04/29 00:28:13;;;;;;;12.30;7.10;;;;;;;6.00;51.83;99839.88;106025;1104;78064;-61
2021/04/29 00:30:19;;;;;;;10.30;7.40;;;;;;;5.97;51.75;99834.86;106025;1104;79030;-61
2021/04/29 00:32:24;;;;;;;14.50;8.00;;;;;;;5.96;51.68;99841.25;106030;1104;78719;-61
2021/04/29 00:34:29;;;;;;;12.80;7.90;;;;;;;6.04;51.60;99830.48;106049;1105;77412;-61
2021/04/29 00:36:34;;;;;;;11.40;7.10;;;;;;;6.07;51.45;99835.50;106026;1104;77983;-61
2021/04/29 00:38:39;;;;;;;12.60;8.10;;;;;;;6.14;51.52;99831.95;106080;1098;77790;-62
2021/04/29 00:40:45;;;;;;;14.50;8.90;;;;;;;6.21;51.39;99835.59;106042;1104;76668;-61
2021/04/29 00:42:53;;;;;;;13.00;9.20;;;;;;;6.28;51.32;99823.16;106058;1104;78394;-61
2021/04/29 00:44:58;;;;;;;12.30;9.40;;;;;;;6.35;51.33;99826.80;106027;1104;79435;-61
2021/04/29 00:47:03;;;;;;;13.80;8.30;;;;;;;6.38;51.02;99815.72;106017;1098;78363;-61
2021/04/29 00:49:08;;;;;;;14.10;8.90;;;;;;;6.38;51.10;99817.56;106031;1104;78541;-61
2021/04/29 00:51:14;;;;;;;11.90;8.80;;;;;;;6.37;50.85;99823.95;106077;1104;77378;-61
2021/04/29 00:53:33;;;;;;;14.70;9.90;;;;;;;6.38;50.88;99829.13;106039;1105;79021;-61
2021/04/29 00:55:38;;;;;;;17.10;8.90;;;;;;;6.35;50.92;99825.95;106026;1104;77540;-61
2021/04/29 00:57:44;;;;;;;12.00;8.40;;;;;;;6.34;51.11;99819.78;106029;1104;78158;-61
2021/04/29 00:59:49;;;;;;;13.40;8.90;;;;;;;6.39;51.03;99820.08;106031;1104;77910;-62
2021/04/29 01:02:00;;;;;;;13.60;9.10;;;;;;;6.38;50.75;99817.56;106045;1104;78207;-62
2021/04/29 01:04:14;;;;;;;15.70;10.80;;;;;;;6.42;51.01;99817.05;106031;1104;78554;-61
2021/04/29 01:06:23;;;;;;;15.40;9.80;;;;;;;6.40;50.84;99816.37;106030;1104;78317;-61
2021/04/29 01:08:37;;;;;;;13.80;9.20;;;;;;;6.37;50.84;99805.98;106058;1104;78135;-61
2021/04/29 01:10:45;;;;;;;;;;;;;;;6.33;50.84;99810.05;106008;1104;78906;-61
2021/04/29 01:12:58;;;;;;;11.80;8.10;;;;;;;6.28;50.81;99811.59;106059;1098;77779;-61
2021/04/29 01:15:05;;;;;;;13.40;9.40;;;;;;;6.24;51.01;99810.26;106052;1104;77987;-61
2021/04/29 01:17:11;;;;;;;13.30;8.20;;;;;;;6.20;50.94;99808.95;106044;1104;78070;-61
2021/04/29 01:19:21;;;;;;;16.20;9.80;;;;;;;6.16;51.00;99813.83;106030;1104;78621;-61
2021/04/29 01:21:30;;;;;;;15.80;9.00;;;;;;;6.23;51.51;99811.29;106022;1104;77137;-62
2021/04/29 01:23:57;;;;;;;14.20;9.50;;;;;;;6.22;51.18;99807.77;106056;1105;79261;-61
2021/04/29 01:26:09;;;;;;;14.90;9.20;;;;;;;6.22;51.24;99807.77;106039;1104;77935;-60
2021/04/29 01:28:14;;;;;;;11.70;8.30;;;;;;;6.23;51.44;99806.77;106040;1104;77450;-61
2021/04/29 01:30:23;;;;;;;16.20;9.00;;;;;;;6.27;51.46;99813.43;106042;1104;78942;-61
2021/04/29 01:32:29;;;;;;;17.90;9.60;;;;;;;6.27;51.51;99794.66;106049;1104;76895;-61
2021/04/29 01:34:37;;;;;;;13.30;9.10;;;;;;;6.25;51.39;99809.26;106025;1104;77203;-61
2021/04/29 01:36:44;;;;;;;13.70;9.10;;;;;;;6.22;51.48;99801.56;106044;1103;78711;-61
2021/04/29 01:38:50;;;;;;;14.40;9.20;;;;;;;6.18;51.60;99805.63;106058;1105;78477;-61
2021/04/29 01:40:56;;;;;;;12.10;8.80;;;;;;;6.13;51.52;99798.08;106045;1104;78698;-61
2021/04/29 01:43:01;;;;;;;14.40;9.20;;;;;;;6.09;51.69;99802.14;106039;1104;79161;-61
2021/04/29 01:45:09;;;;;;;13.90;9.60;;;;;;;6.05;52.10;99806.17;106066;1104;78638;-61
2021/04/29 01:47:15;;;;;;;14.70;9.50;;;;;;;6.04;52.05;99798.31;106063;1097;77395;-61
2021/04/29 01:49:20;;;;;;;13.70;9.10;;;;;;;5.99;52.27;99804.18;106011;1104;79594;-61
2021/04/29 01:51:26;;;;;;;15.20;9.50;;;;;;;5.96;52.36;99801.03;106023;1104;77120;-62
2021/04/29 01:53:31;;;;;;;14.10;9.30;;;;;;;5.90;52.78;99802.56;106038;1104;78536;-62
2021/04/29 01:55:36;;;;;;;13.40;9.10;;;;;;;5.88;52.75;99799.20;106036;1104;78411;-62
2021/04/29 01:57:41;;;;;;;12.50;8.20;;;;;;;5.80;52.87;99799.20;106046;1104;78438;-62
2021/04/29 01:59:46;;;;;;;15.40;9.20;;;;;;;5.77;53.09;99804.91;106029;1104;78860;-62
2021/04/29 02:01:51;;;;;;;14.40;8.90;;;;;;;5.78;53.60;99793.19;106048;1104;77853;-62
2021/04/29 02:03:56;;;;;;;15.70;9.50;;;;;;;5.79;53.37;99800.23;106022;1104;78045;-61
2021/04/29 02:06:01;;;;;;;14.30;9.70;;;;;;;5.73;53.48;99795.56;106038;1104;78557;-61
2021/04/29 02:08:07;;;;;;;12.80;9.90;;;;;;;5.68;53.55;99803.28;106051;1104;77084;-62
2021/04/29 02:10:15;;;;;;;13.20;9.10;;;;;;;5.68;54.02;99797.92;106035;1104;78088;-62
2021/04/29 02:12:22;;;;;;;15.50;10.20;;;;;;;5.74;53.87;99797.23;106030;1104;78457;-62
2021/04/29 02:14:31;;;;;;;17.20;10.10;;;;;;;5.77;54.27;99794.19;106033;1103;78633;-61
2021/04/29 02:16:40;;;;;;;14.00;9.80;;;;;;;5.85;54.22;99799.58;106045;1104;79500;-61
2021/04/29 02:18:51;;;;;;;14.10;10.00;;;;;;;5.89;54.33;99793.69;106084;1098;78493;-62
2021/04/29 02:20:58;;;;;;;12.70;8.70;;;;;;;5.90;54.38;99794.53;106056;1104;78386;-61
2021/04/29 02:23:06;;;;;;;15.40;9.20;;;;;;;5.94;54.09;99790.47;106049;1105;77174;-60
2021/04/29 02:25:14;;;;;;;15.30;9.50;;;;;;;5.93;54.07;99792.31;106038;1104;78749;-59
2021/04/29 02:27:19;;;;;;;13.20;9.60;;;;;;;5.89;54.13;99784.80;106054;1104;77532;-61
2021/04/29 02:29:25;;;;;;;14.30;9.70;;;;;;;5.85;54.32;99789.66;106026;1104;78319;-59
2021/04/29 02:31:30;;;;;;;14.00;9.70;;;;;;;5.88;54.59;99788.48;106028;1104;78794;-62
2021/04/29 02:33:37;;;;;;;14.30;9.00;;;;;;;5.86;54.34;99790.51;106049;1104;77350;-59
2021/04/29 02:35:44;;;;;;;14.40;9.90;;;;;;;5.89;54.85;99790.16;106026;1105;77015;-59
2021/04/29 02:37:53;;;;;;;14.00;9.30;;;;;;;5.91;54.92;99794.34;106040;1105;78618;-59
2021/04/29 02:39:58;;;;;;;17.00;10.90;;;;;;;5.91;54.83;99777.41;106011;1104;78624;-62
2021/04/29 02:42:08;;;;;;;12.70;9.50;;;;;;;5.88;54.84;99781.28;106012;1104;76941;-60
2021/04/29 02:44:13;;;;;;;12.40;9.20;;;;;;;5.86;54.82;99787.83;106001;1104;77390;-59
2021/04/29 02:46:21;;;;;;;17.20;10.90;;;;;;;5.87;55.24;99786.83;106017;1105;78017;-59
2021/04/29 02:48:27;;;;;;;12.60;9.60;;;;;;;5.83;55.26;99780.09;106060;1097;76775;-59
2021/04/29 02:50:32;;;;;;;14.10;9.70;;;;;;;5.81;55.45;99782.97;106047;1104;78157;-59
2021/04/29 02:52:39;;;;;;;14.40;9.60;;;;;;;5.78;55.45;99785.99;106030;1105;77510;-59
2021/04/29 02:54:45;;;;;;;13.60;10.40;;;;;;;5.76;55.87;99779.98;106023;1104;78658;-60
2021/04/29 02:56:50;;;;;;;17.90;10.50;;;;;;;5.80;55.62;99783.13;106033;1104;76979;-60
2021/04/29 02:58:55;;;;;;;15.10;9.40;;;;;;;5.80;55.63;99780.44;106025;1104;77907;-60
2021/04/29 03:01:01;;;;;;;13.90;9.90;;;;;;;5.80;56.20;99775.08;106045;1098;78175;-60
2021/04/29 03:03:08;;;;;;;15.30;10.50;;;;;;;5.86;56.04;99774.42;106011;1103;78864;-59
2021/04/29 03:05:16;;;;;;;18.80;11.30;;;;;;;5.91;56.75;99777.41;106048;1104;77962;-59
2021/04/29 03:07:21;;;;;;;13.70;9.70;;;;;;;5.95;56.63;99770.70;106032;1105;77910;-59
2021/04/29 03:09:26;;;;;;;14.00;9.60;;;;;;;5.97;56.67;99776.72;106041;1104;79167;-59
2021/04/29 03:11:33;;;;;;;16.70;11.50;;;;;;;5.98;56.64;99773.04;106041;1104;78815;-60
2021/04/29 03:13:38;;;;;;;17.60;11.10;;;;;;;5.98;56.60;99783.77;106055;1104;78585;-60
2021/04/29 03:15:43;;;;;;;16.10;10.60;;;;;;;5.99;56.71;99774.69;106039;1105;77826;-60
2021/04/29 03:17:49;;;;;;;19.60;11.70;;;;;;;6.00;56.90;99779.05;106040;1104;78957;-59
2021/04/29 03:19:54;;;;;;;14.60;9.90;;;;;;;6.03;57.27;99770.66;106034;1104;78705;-60
2021/04/29 03:21:59;;;;;;;14.30;9.40;;;;;;;6.11;57.75;99772.45;106030;1105;78827;-60
2021/04/29 03:24:07;;;;;;;14.40;10.60;;;;;;;6.16;57.11;99765.55;106045;1098;77870;-59
2021/04/29 03:26:15;;;;;;;15.50;11.60;;;;;;;6.20;57.53;99766.89;106042;1098;78220;-60
2021/04/29 03:28:20;;;;;;;16.80;11.00;;;;;;;6.26;57.58;99771.52;106061;1105;78214;-60
2021/04/29 03:30:30;;;;;;;16.40;11.30;;;;;;;6.32;57.44;99761.92;106043;1104;78244;-60
2021/04/29 03:32:35;;;;;;;16.80;11.70;;;;;;;6.36;57.25;99761.41;106044;1104;79039;-60
2021/04/29 03:34:40;;;;;;;15.70;11.20;;;;;;;6.43;57.63;99767.73;106051;1104;76778;-60
2021/04/29 03:36:48;;;;;;;13.40;10.50;;;;;;;6.50;57.93;99774.06;106048;1104;78635;-60
2021/04/29 03:38:53;;;;;;;15.80;11.50;;;;;;;6.59;57.64;99771.32;106028;1104;76899;-60
2021/04/29 03:40:58;;;;;;;16.10;12.00;;;;;;;6.62;57.69;99766.41;106023;1105;78864;-60
2021/04/29 03:43:04;;;;;;;18.60;13.00;;;;;;;6.67;58.26;99763.20;106035;1103;77629;-59
2021/04/29 03:45:12;;;;;;;15.40;11.20;;;;;;;6.71;57.69;99770.70;106036;1104;79434;-60
2021/04/29 03:47:17;;;;;;;17.70;12.50;;;;;;;6.76;57.51;99771.00;106023;1104;78709;-60
2021/04/29 03:49:22;;;;;;;14.90;11.60;;;;;;;6.81;57.49;99776.66;106031;1098;76690;-59
2021/04/29 03:51:27;;;;;;;20.30;12.00;;;;;;;6.86;57.45;99774.30;106042;1104;79026;-60
2021/04/29 03:53:32;;;;;;;17.70;12.20;;;;;;;6.89;58.02;99770.41;106008;1104;78605;-60
2021/04/29 03:55:37;;;;;;;17.70;12.20;;;;;;;6.93;57.75;99767.17;106039;1104;78699;-60
2021/04/29 03:57:44;;;;;;;17.50;11.80;;;;;;;7.01;57.83;99771.63;106034;1104;76905;-60
2021/04/29 03:59:49;;;;;;;18.80;13.00;;;;;;;7.10;57.60;99770.54;106032;1104;78401;-60
2021/04/29 04:01:54;;;;;;;19.60;12.80;;;;;;;7.17;57.78;99768.78;106038;1105;78169;-60
2021/04/29 04:04:02;;;;;;;18.70;12.40;;;;;;;7.27;57.64;99771.22;106055;1105;78517;-60
2021/04/29 04:06:08;;;;;;;18.00;12.90;;;;;;;7.35;57.35;99765.76;106029;1103;77764;-60
2021/04/29 04:08:13;;;;;;;17.80;11.90;;;;;;;7.38;57.47;99763.55;106020;1105;79790;-60
2021/04/29 04:10:18;;;;;;;15.50;12.20;;;;;;;7.46;57.19;99766.14;106026;1104;77048;-60
2021/04/29 04:12:23;;;;;;;14.20;11.20;;;;;;;7.49;57.29;99765.78;106011;1104;77099;-60
2021/04/29 04:14:28;;;;;;;15.20;11.60;;;;;;;7.54;57.31;99767.90;106027;1104;78906;-60
2021/04/29 04:16:33;;;;;;;17.10;12.60;;;;;;;7.61;57.04;99779.56;106041;1104;78426;-60
2021/04/29 04:18:38;;;;;;;15.90;12.40;;;;;;;7.68;56.94;99764.38;106037;1098;77569;-60
2021/04/29 04:20:46;;;;;;;13.70;11.20;;;;;;;7.76;57.20;99763.44;106043;1105;76914;-60
2021/04/29 04:22:51;;;;;;;15.20;11.30;;;;;;;7.82;57.12;99771.60;106043;1105;78565;-60
2021/04/29 04:24:56;;;;;;;16.00;12.20;;;;;;;7.95;56.86;99762.86;106035;1104;79052;-60
2021/04/29 04:27:01;;;;;;;15.60;12.20;;;;;;;8.08;56.91;99766.54;106031;1104;77654;-60
2021/04/29 04:29:06;;;;;;;14.30;11.50;;;;;;;8.21;56.75;99771.27;106048;1098;77113;-60
2021/04/29 04:31:11;;;;;;;18.00;12.10;;;;;;;8.46;56.66;99761.82;106035;1105;77166;-61
2021/04/29 04:33:16;;;;;;;17.10;11.70;;;;;;;8.74;56.53;99768.11;106053;1104;78723;-60
2021/04/29 04:35:22;;;;;;;16.60;12.30;;;;;;;9.02;56.30;99765.47;106028;1104;78315;-60
2021/04/29 04:37:27;;;;;;;15.90;11.40;;;;;;;9.41;55.87;99764.93;106062;1098;78600;-60
2021/04/29 04:39:33;;;;;;;17.70;12.80;;;;;;;9.58;55.02;99760.90;106034;1105;78616;-59
2021/04/29 04:41:41;;;;;;;17.30;12.40;;;;;;;9.69;54.64;99757.64;106036;1105;76960;-60
2021/04/29 04:43:46;;;;;;;17.90;11.80;;;;;;;9.93;54.82;99759.84;106026;1104;77952;-60
2021/04/29 04:45:54;;;;;;;19.00;12.20;;;;;;;10.30;54.35;99753.14;106024;1105;78294;-60
2021/04/29 04:47:59;;;;;;;15.70;11.60;;;;;;;10.59;53.81;99754.67;106039;1104;78325;-60
2021/04/29 04:50:08;;;;;;;14.00;11.70;;;;;;;10.76;53.27;99758.66;106036;1098;77504;-60
2021/04/29 04:52:13;;;;;;;18.90;11.90;;;;;;;11.17;52.38;99759.30;106037;1104;77475;-59
2021/04/29 04:54:20;;;;;;;15.60;11.70;;;;;;;11.39;52.25;99751.78;106045;1103;78764;-60
2021/04/29 04:56:26;;;;;;;15.20;11.10;;;;;;;11.51;51.50;99758.20;106039;1104;77766;-60
2021/04/29 04:58:34;;;;;;;17.00;11.50;;;;;;;11.69;51.44;99754.88;106060;1104;79118;-60
2021/04/29 05:00:42;;;;;;;14.90;11.50;;;;;;;12.00;50.83;99744.16;106038;1104;77488;-60
2021/04/29 05:02:47;;;;;;;15.00;11.40;;;;;;;12.24;49.95;99756.13;106083;1104;77104;-60
2021/04/29 05:04:52;;;;;;;14.60;11.50;;;;;;;12.53;49.63;99747.41;106052;1105;78281;-60
2021/04/29 05:07:01;;;;;;;16.70;12.40;;;;;;;12.75;47.88;99742.47;106031;1105;78870;-60
2021/04/29 05:09:07;;;;;;;14.10;11.80;;;;;;;12.69;48.20;99736.05;106029;1105;78569;-60
2021/04/29 05:11:12;;;;;;;16.10;11.70;;;;;;;13.10;47.83;99742.88;106046;1104;79547;-60
2021/04/29 05:13:22;;;;;;;14.50;10.90;;;;;;;13.52;48.13;99745.59;106054;1104;78697;-60
2021/04/29 05:15:27;;;;;;;13.00;11.00;;;;;;;14.26;46.97;99735.53;106034;1104;77290;-60
2021/04/29 05:17:35;;;;;;;17.70;11.90;;;;;;;14.39;46.60;99730.81;106063;1104;77125;-60
2021/04/29 05:19:40;;;;;;;13.60;10.70;;;;;;;15.11;45.96;99728.84;106039;1104;78385;-61
2021/04/29 05:21:45;;;;;;;18.60;10.90;;;;;;;15.89;44.49;99721.99;106044;1104;77756;-60
2021/04/29 05:23:51;;;;;;;13.90;11.30;;;;;;;16.46;43.33;99727.48;106045;1104;77803;-60
2021/04/29 05:25:56;;;;;;;16.60;9.90;;;;;;;16.97;42.92;99724.65;106019;1104;77018;-60
2021/04/29 05:28:03;;;;;;;15.80;11.20;;;;;;;17.56;41.26;99723.14;106032;1104;77572;-60
2021/04/29 05:30:10;;;;;;;15.60;10.70;;;;;;;18.14;41.60;99722.55;106069;1097;77495;-60
2021/04/29 05:32:15;;;;;;;15.20;11.30;;;;;;;18.43;39.67;99722.34;106066;1104;77364;-60
2021/04/29 05:34:20;;;;;;;16.00;11.20;;;;;;;18.36;39.21;99721.70;106036;1104;78024;-60
2021/04/29 05:36:27;;;;;;;16.40;10.50;;;;;;;18.36;38.71;99719.80;106038;1104;78167;-62
2021/04/29 05:38:33;;;;;;;13.50;10.40;;;;;;;18.89;38.81;99719.02;106035;1104;77003;-60
2021/04/29 05:40:38;;;;;;;12.70;10.50;;;;;;;19.43;38.06;99717.84;106042;1104;78679;-60
2021/04/29 05:42:44;;;;;;;15.40;10.80;;;;;;;20.04;37.15;99707.21;106059;1104;77725;-60
2021/04/29 05:44:49;;;;;;;12.80;9.90;;;;;;;20.19;35.51;99709.20;106041;1104;78751;-64
2021/04/29 05:46:54;;;;;;;11.50;10.30;;;;;;;20.37;36.05;99712.30;106010;1104;78141;-60
2021/04/29 05:48:59;;;;;;;12.40;9.40;;;;;;;20.13;35.22;99719.33;106049;1104;77049;-60
2021/04/29 05:51:05;;;;;;;15.50;9.80;;;;;;;20.36;35.39;99710.64;106027;1099;77456;-60
2021/04/29 05:53:10;;;;;;;15.60;10.40;;;;;;;20.84;34.69;99711.30;106040;1105;77984;-60
2021/04/29 05:55:19;;;;;;;12.70;9.80;;;;;;;21.21;33.85;99703.64;106038;1104;77144;-63
2021/04/29 05:57:24;;;;;;;12.30;10.60;;;;;;;21.73;33.45;99703.28;106020;1104;77458;-61
2021/04/29 05:59:30;;;;;;;12.70;9.40;;;;;;;21.82;33.32;99706.28;106044;1104;78259;-60
2021/04/29 06:01:38;;;;;;;15.90;10.00;;;;;;;21.62;32.24;99710.73;106044;1104;78061;-59
2021/04/29 06:03:44;;;;;;;12.30;10.70;;;;;;;21.10;31.58;99704.73;106040;1104;79721;-64
2021/04/29 06:05:50;;;;;;;12.50;9.60;;;;;;;20.64;32.38;99700.28;106036;1104;78563;-61
2021/04/29 06:07:59;;;;;;;13.70;10.70;;;;;;;20.82;32.43;99695.08;106027;1104;78144;-62
2021/04/29 06:10:05;;;;;;;13.50;10.40;;;;;;;21.10;32.23;99694.58;106049;1105;78213;-61
2021/04/29 06:12:14;;;;;;;16.90;10.40;;;;;;;21.30;31.97;99701.16;106068;1104;78292;-61
2021/04/29 06:14:19;;;;;;;12.90;10.30;;;;;;;21.30;31.81;99699.25;106030;1104;79004;-61
2021/04/29 06:16:26;;;;;;;14.40;10.60;;;;;;;21.34;31.47;99696.78;106027;1104;77942;-60
2021/04/29 06:18:31;;;;;;;12.50;9.90;;;;;;;21.08;31.82;99694.04;106024;1105;77415;-61
2021/04/29 06:20:37;;;;;;;12.40;9.40;;;;;;;20.69;31.89;99686.56;106035;1105;78834;-61
2021/04/29 06:22:45;;;;;;;11.30;9.80;;;;;;;20.07;32.66;99692.14;106025;1104;78560;-61
2021/04/29 06:24:50;;;;;;;14.80;10.40;;;;;;;19.86;32.76;99688.50;106034;1104;78612;-61
2021/04/29 06:26:58;;;;;;;11.80;9.90;;;;;;;19.68;33.21;99697.16;106033;1105;78620;-61
2021/04/29 06:29:04;;;;;;;11.80;10.20;;;;;;;19.53;33.32;99689.66;106029;1104;77427;-60
2021/04/29 06:31:09;;;;;;;14.10;10.00;;;;;;;19.72;33.25;99692.80;106049;1104;79467;-61
2021/04/29 06:33:14;;;;;;;13.60;10.30;;;;;;;19.80;33.25;99681.34;106055;1104;78137;-61
2021/04/29 06:35:19;;;;;;;16.70;11.50;;;;;;;19.91;33.33;99681.09;106023;1105;78102;-61
2021/04/29 06:37:24;;;;;;;14.10;10.60;;;;;;;20.07;32.80;99681.17;106026;1104;78562;-61
2021/04/29 06:39:30;;;;;;;14.20;10.80;;;;;;;20.20;33.01;99670.52;106023;1104;77842;-61
2021/04/29 06:41:35;;;;;;;13.90;10.50;;;;;;;20.44;32.97;99674.45;106029;1104;77533;-61
2021/04/29 06:43:41;;;;;;;12.80;9.90;;;;;;;21.00;32.83;99678.08;106019;1104;77262;-60
2021/04/29 06:45:46;;;;;;;15.10;10.60;;;;;;;21.25;32.42;99677.28;106072;1104;77583;-61
2021/04/29 06:47:53;;;;;;;14.60;10.80;;;;;;;21.15;31.71;99678.09;106035;1104;78208;-63
2021/04/29 06:49:58;;;;;;;14.70;10.30;;;;;;;20.95;31.82;99678.09;106019;1104;78734;-62
2021/04/29 06:52:07;;;;;;;12.60;10.40;;;;;;;21.06;32.11;99681.66;106039;1105;77804;-61
2021/04/29 06:54:12;;;;;;;12.60;10.50;;;;;;;21.12;30.73;99686.08;106055;1104;78575;-61
2021/04/29 06:56:17;;;;;;;14.10;11.60;;;;;;;21.06;31.66;99689.89;106040;1104;77387;-61
2021/04/29 06:58:27;;;;;;;14.50;10.90;;;;;;;21.10;31.29;99685.52;106016;1104;78629;-59
2021/04/29 07:00:34;;;;;;;11.40;10.30;;;;;;;21.49;31.42;99683.83;106040;1104;79308;-62
2021/04/29 07:02:39;;;;;;;15.20;11.90;;;;;;;21.69;31.46;99689.28;106028;1104;79323;-61
2021/04/29 07:04:44;;;;;;;14.90;10.80;;;;;;;21.63;31.18;99684.90;106023;1104;78914;-60
2021/04/29 07:06:49;;;;;;;15.90;11.20;;;;;;;22.15;31.07;99686.38;106052;1104;77356;-62
2021/04/29 07:08:54;;;;;;;11.70;10.10;;;;;;;22.31;30.13;99682.45;106039;1104;77947;-61
2021/04/29 07:10:59;;;;;;;16.10;10.80;;;;;;;22.32;30.58;99692.36;106062;1104;78289;-61
2021/04/29 07:13:04;;;;;;;12.20;10.20;;;;;;;22.58;30.11;99676.53;106048;1098;78426;-61
2021/04/29 07:15:12;;;;;;;14.10;11.10;;;;;;;23.22;29.84;99679.06;106030;1104;77608;-62
2021/04/29 07:17:19;;;;;;;15.70;10.80;;;;;;;23.33;30.26;99680.61;106050;1104;78883;-60
2021/04/29 07:19:25;;;;;;;12.90;10.80;;;;;;;23.38;29.73;99675.08;106012;1105;78312;-63
2021/04/29 07:21:30;;;;;;;14.50;10.60;;;;;;;23.33;29.54;99686.13;106029;1105;78522;-61
2021/04/29 07:23:36;;;;;;;11.60;10.30;;;;;;;23.83;29.32;99677.36;106054;1104;77604;-60
2021/04/29 07:25:44;;;;;;;11.20;9.30;;;;;;;24.44;28.41;99671.08;106041;1105;78344;-61
2021/04/29 07:27:49;;;;;;;16.90;11.90;;;;;;;24.96;28.54;99676.39;106048;1104;78264;-61
2021/04/29 07:29:57;;;;;;;13.80;10.60;;;;;;;24.75;27.79;99677.78;106054;1104;76988;-61
2021/04/29 07:32:03;;;;;;;12.80;9.60;;;;;;;25.13;27.59;99668.34;106030;1105;78151;-61
2021/04/29 07:34:08;;;;;;;14.80;10.40;;;;;;;25.55;27.35;99669.28;106037;1104;78862;-60
2021/04/29 07:36:13;;;;;;;15.40;10.40;;;;;;;25.24;27.14;99661.50;106053;1104;78397;-62
2021/04/29 07:38:18;;;;;;;12.50;10.20;;;;;;;25.52;26.92;99658.85;106033;1104;77661;-60
2021/04/29 07:40:24;;;;;;;14.50;10.60;;;;;;;25.13;27.10;99664.77;106028;1104;78831;-63
2021/04/29 07:42:29;;;;;;;11.50;9.90;;;;;;;25.18;26.73;99651.69;106060;1103;77687;-63
2021/04/29 07:44:35;;;;;;;13.70;10.20;;;;;;;25.09;26.30;99660.96;106036;1104;79127;-65
2021/04/29 07:46:40;;;;;;;12.30;10.80;;;;;;;25.27;27.05;99664.81;106043;1104;78126;-66
2021/04/29 07:48:45;;;;;;;11.10;9.50;;;;;;;25.38;26.10;99663.50;106051;1104;78653;-67
2021/04/29 07:50:51;;;;;;;12.60;9.80;;;;;;;24.81;27.10;99664.73;106036;1104;79589;-66
2021/04/29 07:53:00;;;;;;;11.80;9.40;;;;;;;24.24;27.17;99657.55;106010;1104;79323;-68
2021/04/29 07:55:11;;;;;;;12.10;10.10;;;;;;;24.44;27.25;99649.81;106036;1104;76898;-68
2021/04/29 07:57:42;;;;;;;12.40;10.40;;;;;;;24.54;26.84;99657.11;106032;1104;78080;-77
2021/04/29 07:59:51;;;;;;;13.30;10.20;;;;;;;24.28;26.76;99647.58;105989;1088;77387;-63
2021/04/29 08:01:56;;;;;;;12.20;9.90;;;;;;;24.03;27.46;99643.98;106016;1104;77108;-65
2021/04/29 08:04:02;;;;;;;13.70;10.50;;;;;;;24.13;27.15;99642.24;106040;1104;77428;-64
2021/04/29 08:06:07;;;;;;;14.70;9.40;;;;;;;24.06;27.57;99646.15;106054;1104;78034;-63
2021/04/29 08:08:12;;;;;;;11.60;10.30;;;;;;;23.97;27.24;99636.91;106054;1104;77695;-64
2021/04/29 08:10:18;;;;;;;11.90;10.10;;;;;;;24.12;27.68;99635.90;106041;1098;78798;-66
2021/04/29 08:12:23;;;;;;;16.10;10.90;;;;;;;24.16;27.33;99636.13;106025;1104;78869;-64
2021/04/29 08:14:28;;;;;;;10.70;9.50;;;;;;;24.00;27.23;99633.56;106050;1105;79465;-64
2021/04/29 08:16:36;;;;;;;13.00;9.40;;;;;;;23.51;27.25;99632.23;106034;1105;78399;-65
2021/04/29 08:18:41;;;;;;;9.60;8.70;;;;;;;23.13;27.52;99623.75;106023;1099;78733;-67
2021/04/29 08:20:46;;;;;;;13.30;9.80;;;;;;;23.31;27.95;99622.20;106015;1104;77595;-67
2021/04/29 08:22:52;;;;;;;15.20;9.70;;;;;;;23.39;27.96;99624.36;106036;1104;76844;-65
2021/04/29 08:24:59;;;;;;;11.20;9.70;;;;;;;23.77;27.02;99620.60;106046;1105;78341;-65
2021/04/29 08:27:04;;;;;;;13.60;10.00;;;;;;;23.28;27.09;99631.05;105988;1104;78515;-64
2021/04/29 08:29:12;;;;;;;15.80;9.80;;;;;;;23.04;28.11;99627.44;106047;1098;77524;-68
2021/04/29 08:31:19;;;;;;;13.50;10.20;;;;;;;22.67;27.89;99620.58;106029;1104;77336;-64
2021/04/29 08:33:27;;;;;;;10.20;9.10;;;;;;;22.06;28.13;99635.80;105989;1105;77475;-63
2021/04/29 08:35:35;;;;;;;12.50;9.90;;;;;;;21.21;29.09;99629.46;105964;1087;78558;-62
2021/04/29 08:37:40;;;;;;;12.00;9.00;;;;;;;20.98;29.70;99630.86;106059;1104;78327;-63
2021/04/29 08:39:49;;;;;;;12.70;10.20;;;;;;;21.14;30.42;99628.94;106023;1104;78003;-63
2021/04/29 08:41:57;;;;;;;13.50;9.70;;;;;;;22.09;30.26;99626.98;106033;1104;76847;-64
2021/04/29 08:44:06;;;;;;;11.10;9.60;;;;;;;22.19;29.88;99621.45;106026;1104;78909;-64
2021/04/29 08:46:15;;;;;;;12.20;9.50;;;;;;;22.61;28.97;99615.36;106041;1104;78476;-63
2021/04/29 08:48:25;;;;;;;12.10;9.50;;;;;;;22.64;28.96;99604.63;106069;1104;78744;-62
2021/04/29 08:50:32;;;;;;;13.10;10.10;;;;;;;22.17;28.63;99615.38;106028;1105;78522;-62
2021/04/29 08:52:39;;;;;;;10.50;8.60;;;;;;;22.14;28.64;99616.77;106040;1105;76785;-63
2021/04/29 08:54:48;;;;;;;11.80;10.10;;;;;;;21.18;29.25;99610.78;106069;1098;77256;-62
2021/04/29 08:56:55;;;;;;;13.60;10.70;;;;;;;20.80;30.12;99597.63;106075;1098;76988;-63
2021/04/29 08:59:03;;;;;;;11.70;10.00;;;;;;;21.04;30.48;99590.48;106044;1104;77072;-63
2021/04/29 09:01:11;;;;;;;14.00;9.90;;;;;;;21.22;30.51;99591.83;106063;1104;77550;-63
2021/04/29 09:03:16;;;;;;;14.70;9.50;;;;;;;21.46;30.22;99585.44;106027;1105;78877;-64
2021/04/29 09:05:24;;;;;;;15.40;9.70;;;;;;;21.47;30.37;99587.09;106037;1105;78770;-61
2021/04/29 09:07:30;;;;;;;16.80;10.20;;;;;;;21.25;30.98;99592.11;106016;1104;78570;-60
2021/04/29 09:09:42;;;;;;;10.60;9.40;;;;;;;21.84;30.83;99583.09;106051;1104;79259;-63
2021/04/29 09:11:54;;;;;;;13.80;9.70;;;;;;;22.21;29.67;99577.95;106091;1097;76783;-65
2021/04/29 09:14:05;;;;;;;13.80;9.50;;;;;;;21.88;30.28;99578.69;106037;1104;76854;-66
2021/04/29 09:16:14;;;;;;;16.70;10.10;;;;;;;21.93;29.48;99570.41;106025;1105;78832;-59
2021/04/29 09:18:21;;;;;;;11.30;8.90;;;;;;;21.87;30.37;99566.04;106052;1104;78067;-61
2021/04/29 09:20:29;;;;;;;13.30;9.50;;;;;;;22.02;30.64;99568.72;106051;1098;78237;-60
2021/04/29 09:22:37;;;;;;;14.60;9.70;;;;;;;21.98;29.80;99564.88;106036;1104;78503;-62
2021/04/29 09:24:43;;;;;;;13.20;9.60;;;;;;;21.87;30.04;99571.53;106039;1104;78183;-60
2021/04/29 09:26:51;;;;;;;15.80;9.70;;;;;;;21.35;30.28;99577.50;106044;1105;78541;-60
2021/04/29 09:29:09;;;;;;;13.00;10.30;;;;;;;20.92;30.39;99577.03;106041;1105;78665;-59
2021/04/29 09:31:19;;;;;;;12.80;9.40;;;;;;;20.63;30.77;99573.20;106056;1104;78168;-58
2021/04/29 09:33:34;;;;;;;10.30;8.70;;;;;;;20.72;31.13;99576.22;106054;1104;78637;-61
2021/04/29 09:35:41;;;;;;;12.60;9.30;;;;;;;20.48;31.04;99573.21;106039;1104;78630;-62
2021/04/29 09:37:46;;;;;;;13.40;9.70;;;;;;;20.32;31.41;99572.39;106025;1103;77803;-61
2021/04/29 09:39:55;;;;;;;14.10;8.80;;;;;;;20.27;31.45;99569.61;106036;1104;77919;-61
2021/04/29 09:42:00;;;;;;;12.50;9.10;;;;;;;20.25;31.54;99571.81;106026;1104;77971;-61